Time;durP1;ratioP1;P1;durP2;ratioP2;P2;SDS_P1;SDS_P2;PMS_P1;PMS_P2;Temp;Humidity;BMP_temperature;BMP_pressure;BME280_temperature;BME280_humidity;BME280_pressure;Samples;Min_cycle;Max_cycle;Signal;HPM_P1;HPM_P2
2022/05/20 00:01:51;;;;;;;11.05;9.88;;;;;;;14.39;78.11;102303.31;5019836;28;20278;-75
2022/05/20 00:04:16;;;;;;;13.18;9.82;;;;;;;14.39;78.20;102305.97;5032374;28;20087;-75
2022/05/20 00:06:42;;;;;;;12.02;10.18;;;;;;;14.38;78.35;102306.84;5029649;28;20029;-75
2022/05/20 00:09:07;;;;;;;11.68;10.00;;;;;;;14.37;78.40;102307.78;5037898;28;20029;-75
2022/05/20 00:11:33;;;;;;;13.82;9.25;;;;;;;14.36;78.31;102311.31;5029680;28;20053;-75
2022/05/20 00:13:58;;;;;;;10.50;9.50;;;;;;;14.35;78.16;102314.00;5029397;28;20068;-75
2022/05/20 00:16:24;;;;;;;10.38;9.40;;;;;;;14.34;78.19;102313.16;5037997;28;20033;-75
2022/05/20 00:18:49;;;;;;;10.73;9.73;;;;;;;14.33;78.43;102311.41;5037089;28;20261;-75
2022/05/20 00:21:15;;;;;;;9.27;8.40;;;;;;;14.31;78.19;102313.25;5038161;28;20217;-75
2022/05/20 00:23:40;;;;;;;12.88;8.77;;;;;;;14.30;78.55;102308.91;5043348;28;20298;-75
2022/05/20 00:26:06;;;;;;;9.60;8.70;;;;;;;14.28;78.44;102302.81;5037781;28;20057;-75
2022/05/20 00:28:31;;;;;;;8.60;7.90;;;;;;;14.26;78.48;102302.03;5032948;28;20044;-75
2022/05/20 00:31:07;;;;;;;10.02;8.95;;;;;;;14.25;78.44;102297.66;5041179;28;20048;-75
2022/05/20 00:33:34;;;;;;;10.95;8.73;;;;;;;14.25;78.39;102294.16;5053510;28;20074;-75
2022/05/20 00:35:59;;;;;;;10.23;8.90;;;;;;;14.23;78.57;102301.25;5037165;28;20037;-75
2022/05/20 00:38:26;;;;;;;9.88;8.88;;;;;;;14.21;78.78;102296.88;5038811;28;20033;-75
2022/05/20 00:40:54;;;;;;;10.57;9.40;;;;;;;14.21;78.66;102298.66;5041287;28;20087;-75
2022/05/20 00:43:26;;;;;;;10.63;9.60;;;;;;;14.19;78.58;102298.72;5041262;28;20021;-75
2022/05/20 00:45:53;;;;;;;11.07;9.93;;;;;;;14.19;78.77;102296.09;5023966;28;20284;-75
2022/05/20 00:48:18;;;;;;;11.57;9.90;;;;;;;14.19;78.78;102303.13;5041578;28;20199;-75
2022/05/20 00:50:49;;;;;;;10.55;9.45;;;;;;;14.18;79.07;102301.41;5041092;28;20079;-75
2022/05/20 00:53:18;;;;;;;10.20;9.27;;;;;;;14.17;78.88;102299.66;5041437;28;20359;-75
2022/05/20 00:55:44;;;;;;;10.10;9.20;;;;;;;14.16;78.78;102300.59;5040814;28;20347;-75
2022/05/20 00:58:14;;;;;;;9.65;8.65;;;;;;;14.14;79.04;102302.41;5041398;28;20041;-75
2022/05/20 01:00:45;;;;;;;10.52;9.35;;;;;;;14.13;79.07;102300.69;5040172;28;20108;-75
2022/05/20 01:03:13;;;;;;;10.10;9.10;;;;;;;14.11;79.04;102306.00;5040875;28;20041;-75
2022/05/20 01:05:45;;;;;;;9.55;8.65;;;;;;;14.09;79.26;102289.38;5040738;28;20025;-75
2022/05/20 01:08:14;;;;;;;9.35;8.43;;;;;;;14.10;79.51;102292.88;5041434;28;20256;-75
2022/05/20 01:10:39;;;;;;;9.90;8.90;;;;;;;14.08;79.31;102286.78;5039438;28;20019;-75
2022/05/20 01:13:05;;;;;;;9.75;8.75;;;;;;;14.07;79.26;102285.09;5039353;28;20029;-75
2022/05/20 01:15:31;;;;;;;9.77;8.77;;;;;;;14.06;79.38;102280.72;5040057;28;20109;-75
2022/05/20 01:17:58;;;;;;;10.00;9.10;;;;;;;14.06;79.16;102270.19;5041171;28;20345;-75
2022/05/20 01:20:27;;;;;;;10.10;9.10;;;;;;;14.04;79.50;102261.47;5022968;28;20101;-75
2022/05/20 01:22:58;;;;;;;11.20;10.00;;;;;;;14.03;79.27;102250.06;5021607;28;20298;-75
2022/05/20 01:25:27;;;;;;;11.70;10.32;;;;;;;14.00;80.11;102255.44;5040060;28;20317;-75
2022/05/20 01:27:52;;;;;;;12.32;10.73;;;;;;;13.99;80.26;102254.59;5040118;28;20038;-75
2022/05/20 01:30:22;;;;;;;11.93;9.98;;;;;;;13.99;80.32;102259.00;5040386;28;20116;-75
2022/05/20 01:32:49;;;;;;;11.95;10.07;;;;;;;13.98;79.94;102246.72;5039959;28;20037;-75
2022/05/20 01:35:26;;;;;;;10.57;9.57;;;;;;;13.97;79.90;102235.34;5022713;28;20060;-75
2022/05/20 01:37:51;;;;;;;12.18;10.98;;;;;;;13.97;79.89;102234.44;5040427;28;20214;-75
2022/05/20 01:40:17;;;;;;;12.45;10.70;;;;;;;13.96;79.84;102230.97;5022152;28;20043;-75
2022/05/20 01:43:04;;;;;;;11.43;10.23;;;;;;;13.95;80.03;102239.78;5036874;28;20226;-75
2022/05/20 01:45:40;;;;;;;13.43;10.82;;;;;;;13.96;80.27;102243.28;5039708;28;20264;-75
2022/05/20 01:48:24;;;;;;;14.93;11.52;;;;;;;13.94;80.04;102231.94;5040123;28;20090;-75
2022/05/20 01:50:54;;;;;;;13.52;11.35;;;;;;;13.95;80.24;102244.19;5038565;28;20065;-75
2022/05/20 01:53:30;;;;;;;11.60;10.40;;;;;;;13.93;80.16;102240.75;5040256;28;20028;-75
2022/05/20 01:56:16;;;;;;;11.68;10.48;;;;;;;13.92;80.06;102245.16;5039548;28;20202;-75
2022/05/20 01:58:45;;;;;;;11.75;10.02;;;;;;;13.91;80.06;102238.16;5018667;28;20034;-75
2022/05/20 02:01:17;;;;;;;10.73;9.60;;;;;;;13.89;79.69;102239.13;5021361;28;20225;-75
2022/05/20 02:04:00;;;;;;;10.45;9.55;;;;;;;13.89;79.76;102239.13;5039452;28;20368;-75
2022/05/20 02:06:39;;;;;;;10.30;9.30;;;;;;;13.86;79.68;102242.72;5038761;28;20100;-75
2022/05/20 02:09:08;;;;;;;11.15;9.07;;;;;;;13.85;79.46;102238.38;5038555;28;20045;-75
2022/05/20 02:12:06;;;;;;;9.40;8.60;;;;;;;13.83;79.61;102227.88;5038626;28;20032;-75
2022/05/20 02:14:49;;;;;;;10.05;8.57;;;;;;;13.82;79.62;102225.28;4995323;28;20061;-75
2022/05/20 02:17:21;;;;;;;8.77;7.95;;;;;;;13.80;79.52;102227.09;5039350;28;20035;-75
2022/05/20 02:20:13;;;;;;;8.55;7.85;;;;;;;13.79;79.60;102228.03;5039295;28;20041;-75
2022/05/20 02:22:44;;;;;;;9.38;8.48;;;;;;;13.77;79.74;102235.97;5038221;28;20341;-75
2022/05/20 02:25:15;;;;;;;9.45;8.43;;;;;;;13.75;79.80;102232.53;5039550;28;20033;-73
2022/05/20 02:27:46;;;;;;;9.55;8.65;;;;;;;13.75;79.66;102221.13;5037676;28;20107;-73
2022/05/20 02:30:15;;;;;;;10.38;9.48;;;;;;;13.74;79.91;102214.16;5038705;28;20380;-73
2022/05/20 02:32:47;;;;;;;9.90;9.10;;;;;;;13.73;79.97;102220.31;5037986;28;20106;-73
2022/05/20 02:35:12;;;;;;;10.70;9.23;;;;;;;13.72;79.86;102223.88;5038707;28;20048;-73
2022/05/20 02:37:38;;;;;;;9.57;8.75;;;;;;;13.70;79.64;102221.28;5037437;28;20325;-73
2022/05/20 02:40:06;;;;;;;10.48;9.40;;;;;;;13.71;79.61;102224.78;5038773;28;20103;-73
2022/05/20 02:42:32;;;;;;;10.18;9.27;;;;;;;13.69;79.98;102221.34;5038021;28;20056;-73
2022/05/20 02:45:00;;;;;;;9.88;8.85;;;;;;;13.68;79.70;102217.84;5039079;28;20249;-73
2022/05/20 02:47:31;;;;;;;10.65;9.48;;;;;;;13.67;79.96;102223.16;5038184;28;20045;-73
2022/05/20 02:49:57;;;;;;;11.60;9.93;;;;;;;13.66;79.60;102224.06;5039076;28;20057;-73
2022/05/20 02:52:22;;;;;;;10.27;9.30;;;;;;;13.66;79.99;102219.66;5038375;28;20037;-73
2022/05/20 02:54:48;;;;;;;10.35;9.35;;;;;;;13.65;79.78;102231.09;5020220;28;20108;-73
2022/05/20 02:57:13;;;;;;;10.02;8.98;;;;;;;13.64;80.13;102224.09;5038695;28;20041;-73
2022/05/20 03:05:06;;;;;;;9.55;8.68;;;;;;;13.60;80.08;102244.38;5038350;28;20356;-73
2022/05/20 03:07:32;;;;;;;8.75;8.05;;;;;;;13.60;79.99;102243.53;5019032;28;20282;-73
2022/05/20 03:09:58;;;;;;;9.15;8.30;;;;;;;13.58;79.77;102238.31;5038230;28;20029;-73
2022/05/20 03:12:24;;;;;;;8.77;7.97;;;;;;;13.58;79.94;102240.09;5037815;28;20041;-73
2022/05/20 03:14:51;;;;;;;8.20;7.50;;;;;;;13.57;79.76;102236.59;5037555;28;20283;-73
2022/05/20 03:17:16;;;;;;;7.80;7.13;;;;;;;13.56;80.27;102237.50;5037830;28;20041;-73
2022/05/20 03:19:41;;;;;;;7.78;7.18;;;;;;;13.55;79.76;102230.53;5020081;28;20047;-73
2022/05/20 03:22:07;;;;;;;8.30;7.60;;;;;;;13.54;79.89;102228.78;5038131;28;20045;-73
2022/05/20 03:24:33;;;;;;;10.30;7.90;;;;;;;13.54;79.98;102228.78;5037914;28;20241;-73
2022/05/20 03:26:58;;;;;;;8.55;7.75;;;;;;;13.53;80.28;102219.16;5037752;28;20033;-73
2022/05/20 03:29:24;;;;;;;10.40;9.07;;;;;;;13.53;80.18;102219.16;5020265;28;20059;-73
2022/05/20 03:31:50;;;;;;;10.45;9.32;;;;;;;13.53;80.01;102218.31;5018933;28;20148;-73
2022/05/20 03:34:17;;;;;;;11.48;10.35;;;;;;;13.52;80.03;102212.19;5037893;28;20045;-73
2022/05/20 03:36:45;;;;;;;11.98;10.25;;;;;;;13.52;80.48;102213.97;5036688;28;20033;-73
2022/05/20 03:39:13;;;;;;;13.23;10.77;;;;;;;13.53;80.67;102213.91;5036705;28;20026;-73
2022/05/20 03:41:39;;;;;;;11.93;10.52;;;;;;;13.52;80.74;102204.31;5015561;28;20050;-73
2022/05/20 03:44:07;;;;;;;12.38;11.00;;;;;;;13.53;80.83;102199.88;5016746;28;20096;-73
2022/05/20 03:46:32;;;;;;;13.75;11.38;;;;;;;13.52;81.19;102201.66;4998129;28;20033;-73
2022/05/20 03:49:01;;;;;;;12.60;10.77;;;;;;;13.52;81.16;102198.19;5016297;28;20057;-73
2022/05/20 03:51:26;;;;;;;13.50;11.38;;;;;;;13.52;81.19;102199.03;5015828;28;20522;-73
2022/05/20 03:53:52;;;;;;;11.60;10.40;;;;;;;13.54;81.45;102191.09;4997942;28;20045;-73
2022/05/20 03:56:17;;;;;;;14.63;11.95;;;;;;;13.52;81.56;102180.63;5015110;28;20037;-73
2022/05/20 03:58:42;;;;;;;17.52;13.38;;;;;;;13.52;81.67;102179.75;5016217;28;20045;-73
2022/05/20 04:03:55;;;;;;;24.38;18.50;;;;;;;13.42;83.55;102171.28;5016105;28;20395;-73
2022/05/20 04:06:21;;;;;;;29.52;20.42;;;;;;;13.33;84.67;102161.03;5015726;28;20042;-73
2022/05/20 04:08:48;;;;;;;25.33;20.13;;;;;;;13.31;85.12;102174.25;5015502;28;20088;-73
2022/05/20 04:11:14;;;;;;;21.95;16.75;;;;;;;13.32;85.03;102177.75;5015860;28;20030;-73
2022/05/20 04:13:41;;;;;;;25.27;17.05;;;;;;;13.34;84.63;102183.81;5016948;28;20057;-73
2022/05/20 04:16:08;;;;;;;24.33;18.20;;;;;;;13.36;84.73;102197.78;5019215;28;20041;-73
2022/05/20 04:18:34;;;;;;;22.50;16.83;;;;;;;13.36;84.40;102193.38;4998599;28;20038;-73
2022/05/20 04:21:00;;;;;;;22.58;16.52;;;;;;;13.37;84.24;102192.47;5018621;28;20398;-73
2022/05/20 04:23:26;;;;;;;23.10;16.50;;;;;;;13.39;83.80;102202.97;5019210;28;20045;-73
2022/05/20 04:25:51;;;;;;;20.98;16.42;;;;;;;13.39;83.49;102209.09;5018422;28;20042;-73
2022/05/20 04:28:17;;;;;;;18.80;15.40;;;;;;;13.40;83.00;102196.78;5018984;28;20060;-73
2022/05/20 04:30:43;;;;;;;17.60;14.95;;;;;;;13.41;82.98;102194.09;5001407;28;20084;-73
2022/05/20 04:33:08;;;;;;;19.33;14.43;;;;;;;13.41;82.98;102194.09;5019298;28;20293;-73
2022/05/20 04:35:34;;;;;;;19.63;14.65;;;;;;;13.42;82.69;102194.97;5019209;28;20253;-73
2022/05/20 04:37:59;;;;;;;16.85;14.15;;;;;;;13.42;82.76;102201.09;5017693;28;20037;-73
2022/05/20 04:40:25;;;;;;;20.00;14.77;;;;;;;13.44;82.69;102201.03;5019175;28;20057;-73
2022/05/20 04:48:22;;;;;;;19.60;15.25;;;;;;;13.45;82.56;102205.41;5018428;28;20041;-73
2022/05/20 04:50:47;;;;;;;17.58;14.93;;;;;;;13.46;82.16;102206.25;5019025;28;20041;-73
2022/05/20 04:54:49;;;;;;;20.40;15.00;;;;;;;13.46;82.31;102207.09;5019248;28;20297;-73
2022/05/20 04:55:58;;;;;;;21.15;15.05;;;;;;;13.46;82.20;102204.47;5004450;28;20053;-73
2022/05/20 04:58:23;;;;;;;23.30;15.07;;;;;;;13.47;82.26;102206.22;5019067;28;20330;-73
2022/05/20 05:00:49;;;;;;;18.08;15.15;;;;;;;13.47;81.95;102203.56;5018334;28;20041;-73
2022/05/20 05:03:15;;;;;;;24.48;15.90;;;;;;;13.49;82.17;102206.16;5000520;28;20040;-73
2022/05/20 05:05:40;;;;;;;22.52;15.90;;;;;;;13.49;81.86;102204.38;4998293;28;20097;-73
2022/05/20 05:08:05;;;;;;;20.20;15.13;;;;;;;13.50;82.15;102213.13;5017650;28;20119;-73
2022/05/20 05:10:31;;;;;;;20.83;15.00;;;;;;;13.50;81.92;102200.84;5001444;28;20264;-73
2022/05/20 05:12:56;;;;;;;19.85;16.25;;;;;;;13.51;82.23;102197.28;5016374;28;20045;-73
2022/05/20 05:15:22;;;;;;;21.27;15.73;;;;;;;13.53;81.97;102199.88;5018261;28;20046;-73
2022/05/20 05:20:32;;;;;;;21.90;14.65;;;;;;;13.55;82.21;102198.94;5003656;28;20056;-73
2022/05/20 05:22:58;;;;;;;20.65;16.10;;;;;;;13.56;82.14;102211.19;5018631;28;20038;-73
2022/05/20 05:25:26;;;;;;;21.40;16.58;;;;;;;13.57;81.91;102202.38;5000465;28;20117;-73
2022/05/20 05:27:52;;;;;;;21.52;15.60;;;;;;;13.59;82.02;102211.09;5017001;28;20046;-73
2022/05/20 05:30:18;;;;;;;23.92;16.23;;;;;;;13.60;81.96;102210.16;5017784;28;20299;-73
2022/05/20 05:32:44;;;;;;;21.17;16.10;;;;;;;13.61;82.16;102211.06;5016383;28;20046;-73
2022/05/20 05:35:13;;;;;;;23.73;17.02;;;;;;;13.61;81.98;102204.00;5018263;28;20068;-73
2022/05/20 05:37:39;;;;;;;24.60;17.50;;;;;;;13.64;81.83;102197.78;5020772;28;20037;-73
2022/05/20 05:40:07;;;;;;;21.63;16.63;;;;;;;13.65;82.10;102194.25;5017087;28;20288;-73
2022/05/20 05:42:32;;;;;;;24.13;17.80;;;;;;;13.66;82.04;102195.97;5017356;28;20041;-73
2022/05/20 05:44:59;;;;;;;25.42;18.20;;;;;;;13.68;82.13;102201.16;5018078;28;20037;-73
2022/05/20 05:47:25;;;;;;;29.58;18.42;;;;;;;13.69;82.32;102189.75;5015238;28;20042;-73
2022/05/20 05:49:50;;;;;;;41.22;27.45;;;;;;;13.69;82.93;102179.22;5000982;28;20479;-73
2022/05/20 05:52:16;;;;;;;51.90;31.50;;;;;;;13.69;85.52;102182.69;5017640;28;20052;-73
2022/05/20 05:54:41;;;;;;;51.50;29.10;;;;;;;13.68;86.40;102182.75;5000402;28;20034;-73
2022/05/20 05:57:06;;;;;;;44.33;28.50;;;;;;;13.69;87.14;102179.22;5001090;28;20255;-73
2022/05/20 05:59:33;;;;;;;42.80;28.30;;;;;;;13.71;87.22;102183.50;5017164;28;20057;-73
2022/05/20 06:02:00;;;;;;;40.13;27.92;;;;;;;13.73;87.72;102188.72;5005888;28;20034;-73
2022/05/20 06:04:27;;;;;;;44.58;29.05;;;;;;;13.75;88.20;102192.16;5017386;28;20042;-73
2022/05/20 06:06:53;;;;;;;55.20;32.75;;;;;;;13.76;88.40;102186.00;5017657;28;20299;-73
2022/05/20 06:09:18;;;;;;;53.38;32.33;;;;;;;13.76;88.76;102194.75;5017348;28;20097;-73
2022/05/20 06:11:44;;;;;;;40.08;27.67;;;;;;;13.79;88.86;102194.66;5016872;28;20053;-73
2022/05/20 06:14:09;;;;;;;36.15;24.70;;;;;;;13.82;88.46;102191.94;5016868;28;20107;-73
2022/05/20 06:16:35;;;;;;;40.75;24.55;;;;;;;13.84;87.91;102181.31;4999373;28;20069;-72
2022/05/20 06:19:00;;;;;;;33.45;22.50;;;;;;;13.87;87.60;102177.75;5016612;28;20041;-73
2022/05/20 06:21:26;;;;;;;40.83;26.17;;;;;;;13.89;87.23;102174.13;5016640;28;20227;-73
2022/05/20 06:23:52;;;;;;;37.60;25.05;;;;;;;13.92;87.58;102171.41;5017216;28;20038;-73
2022/05/20 06:26:17;;;;;;;49.83;32.08;;;;;;;13.96;87.76;102166.91;5013555;28;20065;-73
2022/05/20 06:28:43;;;;;;;41.65;27.98;;;;;;;13.95;88.89;102176.59;5015226;28;20041;-73
2022/05/20 06:31:08;;;;;;;38.05;25.20;;;;;;;13.99;88.50;102170.31;5020873;28;20045;-73
2022/05/20 06:33:33;;;;;;;40.17;23.63;;;;;;;14.02;88.67;102177.22;4993092;28;20043;-73
2022/05/20 06:41:26;;;;;;;43.70;28.52;;;;;;;14.09;87.98;102175.25;5026488;28;20291;-73
2022/05/20 06:43:52;;;;;;;38.38;24.33;;;;;;;14.11;88.21;102178.69;5024817;28;20133;-73
2022/05/20 06:46:17;;;;;;;35.55;22.23;;;;;;;14.12;88.37;102176.00;5032404;28;20037;-73
2022/05/20 06:48:51;;;;;;;38.05;23.27;;;;;;;14.14;88.34;102173.31;5014028;28;20212;-73
2022/05/20 06:51:23;;;;;;;31.75;22.50;;;;;;;14.17;88.14;102165.28;5027734;28;20042;-73
2022/05/20 06:53:52;;;;;;;29.58;19.67;;;;;;;14.20;88.16;102160.78;5012476;28;20034;-73
2022/05/20 06:56:18;;;;;;;35.65;23.63;;;;;;;14.23;88.10;102158.97;5027247;28;20063;-73
2022/05/20 06:58:44;;;;;;;29.23;20.33;;;;;;;14.24;87.95;102153.63;5030558;28;20045;-73
2022/05/20 07:01:10;;;;;;;26.40;18.90;;;;;;;14.27;87.68;102156.16;5031360;28;20108;-73
2022/05/20 07:03:36;;;;;;;31.55;19.30;;;;;;;14.31;87.39;102157.78;5028559;28;20293;-73
2022/05/20 07:06:05;;;;;;;24.30;17.88;;;;;;;14.35;86.97;102151.50;5017301;28;20038;-73
2022/05/20 07:08:32;;;;;;;27.48;17.52;;;;;;;14.39;86.90;102157.53;5031204;28;20041;-73
2022/05/20 07:10:57;;;;;;;25.42;17.17;;;;;;;14.44;87.15;102147.66;5033318;28;20037;-73
2022/05/20 07:13:22;;;;;;;22.92;15.95;;;;;;;14.49;86.60;102143.06;5028854;28;20105;-73
2022/05/20 07:15:48;;;;;;;19.88;14.27;;;;;;;14.54;86.63;102146.41;5024351;28;20056;-73
2022/05/20 07:18:13;;;;;;;20.70;12.63;;;;;;;14.58;86.18;102141.91;5023434;28;20237;-72
2022/05/20 07:20:40;;;;;;;25.48;13.02;;;;;;;14.63;84.80;102141.75;5011586;28;20206;-73
2022/05/20 07:23:06;;;;;;;14.18;10.80;;;;;;;14.63;83.65;102131.22;5029114;28;20132;-73
2022/05/20 07:25:33;;;;;;;19.05;12.18;;;;;;;14.65;82.79;102124.97;5025960;28;20045;-73
2022/05/20 07:27:59;;;;;;;13.18;9.65;;;;;;;14.69;82.17;102123.06;5028158;28;20065;-73
2022/05/20 07:30:25;;;;;;;12.57;10.23;;;;;;;14.72;82.04;102115.91;5011508;28;20065;-73
2022/05/20 07:32:51;;;;;;;12.82;9.15;;;;;;;14.76;82.13;102109.59;5029604;28;20104;-73
2022/05/20 07:35:16;;;;;;;13.43;9.50;;;;;;;14.80;82.33;102109.47;5013105;28;20052;-73
2022/05/20 07:37:42;;;;;;;14.75;10.05;;;;;;;14.86;82.47;102096.94;5030240;28;20041;-72
2022/05/20 07:40:08;;;;;;;15.07;10.55;;;;;;;14.90;81.44;102092.41;5034002;28;20033;-72
2022/05/20 07:42:33;;;;;;;13.52;10.27;;;;;;;14.90;81.12;102085.34;5034429;28;20044;-73
2022/05/20 07:44:59;;;;;;;13.95;10.93;;;;;;;14.92;81.34;102080.84;5033390;28;20041;-72
2022/05/20 07:47:26;;;;;;;14.93;10.10;;;;;;;14.93;81.52;102073.78;5015431;28;20068;-73
2022/05/20 07:49:51;;;;;;;12.70;10.27;;;;;;;14.97;81.41;102076.25;5025681;28;20045;-73
2022/05/20 07:55:03;;;;;;;12.73;9.43;;;;;;;15.06;81.84;102090.00;5035596;28;20276;-72
2022/05/20 07:57:29;;;;;;;12.18;9.82;;;;;;;15.11;82.56;102091.53;5016248;28;20407;-72
2022/05/20 07:59:54;;;;;;;12.07;9.43;;;;;;;15.14;82.35;102083.50;5037266;28;20033;-72
2022/05/20 08:02:23;;;;;;;14.65;10.15;;;;;;;15.20;82.52;102084.16;5038270;28;20044;-72
2022/05/20 08:04:57;;;;;;;12.95;10.35;;;;;;;15.24;82.74;102076.06;5030412;28;20033;-73
2022/05/20 08:07:28;;;;;;;17.20;10.65;;;;;;;15.29;81.97;102066.16;5039550;28;20233;-72
2022/05/20 08:09:54;;;;;;;13.23;10.00;;;;;;;15.32;82.03;102062.56;5033812;28;20048;-73
2022/05/20 08:12:21;;;;;;;13.90;10.15;;;;;;;15.34;81.85;102069.50;5036567;28;20123;-73
2022/05/20 08:14:47;;;;;;;13.82;10.68;;;;;;;15.40;82.03;102070.16;5035464;28;20041;-73
2022/05/20 08:17:13;;;;;;;10.65;9.13;;;;;;;15.41;82.32;102066.59;5029337;28;20047;-73
2022/05/20 08:19:38;;;;;;;12.60;10.18;;;;;;;15.45;82.25;102060.28;5026542;28;20038;-73
2022/05/20 08:22:04;;;;;;;17.60;10.18;;;;;;;15.47;82.12;102061.06;5031237;28;20034;-73
2022/05/20 08:24:30;;;;;;;15.70;11.40;;;;;;;15.51;82.63;102060.00;5036299;28;20052;-73
2022/05/20 08:26:56;;;;;;;13.20;11.10;;;;;;;15.54;82.68;102046.69;5036772;28;20037;-73
2022/05/20 08:29:22;;;;;;;13.20;10.80;;;;;;;15.58;82.04;102050.91;5036380;28;20037;-73
2022/05/20 08:31:48;;;;;;;12.60;10.23;;;;;;;15.62;81.73;102036.63;5019604;28;20343;-72
2022/05/20 08:34:13;;;;;;;15.52;11.82;;;;;;;15.63;82.28;102027.81;5038368;28;20245;-72
2022/05/20 08:36:39;;;;;;;15.98;11.82;;;;;;;15.65;81.61;102025.09;5037474;28;20033;-73
2022/05/20 08:39:06;;;;;;;14.98;11.77;;;;;;;15.70;82.02;102013.41;5034644;28;20052;-73
2022/05/20 08:41:38;;;;;;;18.98;11.88;;;;;;;15.75;82.13;101997.38;5024664;28;20054;-73
2022/05/20 08:44:11;;;;;;;18.48;11.27;;;;;;;15.82;81.96;101984.78;5036246;28;20028;-72
2022/05/20 08:46:37;;;;;;;15.13;11.30;;;;;;;15.90;81.68;101975.59;5036784;28;20108;-73
2022/05/20 08:49:03;;;;;;;14.98;9.88;;;;;;;15.98;79.52;101969.09;5028065;28;20033;-73
2022/05/20 08:51:33;;;;;;;13.00;9.50;;;;;;;16.00;79.22;101948.75;5034366;28;20566;-73
2022/05/20 08:54:01;;;;;;;13.07;9.27;;;;;;;16.03;78.82;101944.19;5031918;28;20045;-73
2022/05/20 08:56:27;;;;;;;13.50;9.83;;;;;;;16.07;79.23;101939.63;5033357;28;20048;-73
2022/05/20 08:58:56;;;;;;;11.00;9.07;;;;;;;16.07;78.98;101951.03;5034474;28;20038;-73
2022/05/20 09:01:34;;;;;;;13.98;9.40;;;;;;;16.08;78.33;101950.13;5036526;28;20033;-73
2022/05/20 09:04:01;;;;;;;15.27;8.85;;;;;;;16.10;78.04;101952.69;5029667;28;20063;-73
2022/05/20 09:06:26;;;;;;;12.52;8.73;;;;;;;16.12;78.06;101954.31;5028312;28;20049;-73
2022/05/20 09:09:14;;;;;;;13.65;8.68;;;;;;;16.12;77.91;101950.84;5036259;28;20102;-73
2022/05/20 09:11:42;;;;;;;10.30;8.23;;;;;;;16.16;77.91;101948.91;5035929;28;20232;-73
2022/05/20 09:17:13;;;;;;;7.78;7.03;;;;;;;16.21;76.51;101949.53;5037225;28;20288;-73
2022/05/20 09:19:58;;;;;;;9.55;6.50;;;;;;;16.22;76.19;101944.16;5038489;28;20039;-72
2022/05/20 09:22:31;;;;;;;10.07;6.00;;;;;;;16.24;76.28;101950.22;5033997;28;20037;-73
2022/05/20 09:24:57;;;;;;;11.80;6.15;;;;;;;16.26;76.18;101945.75;5032584;28;20252;-73
2022/05/20 09:27:29;;;;;;;7.03;6.32;;;;;;;16.25;75.91;101930.81;5028738;28;20105;-73
2022/05/20 09:29:54;;;;;;;10.50;6.15;;;;;;;16.26;75.80;101929.03;5030909;28;20041;-73
2022/05/20 09:32:34;;;;;;;6.93;6.15;;;;;;;16.27;76.46;101912.25;5035550;28;20038;-73
2022/05/20 09:35:07;;;;;;;14.27;6.82;;;;;;;16.30;76.45;101914.75;5037377;28;20345;-73
2022/05/20 09:37:34;;;;;;;7.50;6.55;;;;;;;16.33;75.60;101897.88;5031994;28;20052;-73
2022/05/20 09:40:24;;;;;;;7.10;6.40;;;;;;;16.36;75.49;101898.59;5037055;28;20309;-72
2022/05/20 09:43:03;;;;;;;13.35;6.78;;;;;;;16.37;74.68;101894.16;5025329;28;20026;-72
2022/05/20 09:45:44;;;;;;;12.23;7.13;;;;;;;16.39;75.24;101900.22;5024333;28;20037;-73
2022/05/20 09:48:14;;;;;;;7.80;6.32;;;;;;;16.41;75.24;101875.44;5032087;28;20329;-72
2022/05/20 09:50:40;;;;;;;12.15;7.95;;;;;;;16.44;76.01;101858.56;5024555;28;20021;-73
2022/05/20 09:53:24;;;;;;;11.35;7.57;;;;;;;16.49;75.06;101860.03;5026992;28;20041;-73
2022/05/20 09:55:49;;;;;;;12.23;8.10;;;;;;;16.51;74.86;101859.97;5031705;28;20041;-73
2022/05/20 09:58:18;;;;;;;9.27;7.75;;;;;;;16.52;75.61;101843.19;5034179;28;20048;-73
2022/05/20 10:00:55;;;;;;;11.52;8.40;;;;;;;16.58;74.63;101828.78;5046117;28;20041;-73
2022/05/20 10:03:46;;;;;;;9.38;7.50;;;;;;;16.58;74.42;101828.78;5035692;28;20109;-73
2022/05/20 10:06:27;;;;;;;8.18;7.38;;;;;;;16.59;74.30;101826.09;5033920;28;20032;-73
2022/05/20 10:08:58;;;;;;;12.80;7.78;;;;;;;16.61;74.72;101818.91;5035493;28;20068;-73
2022/05/20 10:11:31;;;;;;;8.40;7.32;;;;;;;16.65;74.99;101809.88;5027997;28;20091;-72
2022/05/20 10:14:06;;;;;;;10.52;8.00;;;;;;;16.67;74.53;101797.44;5033182;28;20086;-73
2022/05/20 10:16:43;;;;;;;9.80;7.38;;;;;;;16.72;74.62;101784.00;5036536;28;20044;-73
2022/05/20 10:19:32;;;;;;;8.55;6.85;;;;;;;16.77;73.30;101778.44;5028582;28;20341;-73
2022/05/20 10:22:12;;;;;;;11.27;6.60;;;;;;;16.81;72.44;101753.56;5035629;28;20037;-73
2022/05/20 10:24:56;;;;;;;8.52;6.75;;;;;;;16.89;72.70;101743.47;5031883;28;20225;-73
2022/05/20 10:27:55;;;;;;;8.95;6.68;;;;;;;16.90;72.04;101726.66;5035138;28;20352;-73
2022/05/20 10:33:09;;;;;;;7.82;6.10;;;;;;;16.95;71.35;101703.44;5035921;28;20232;-73
2022/05/20 10:36:00;;;;;;;7.93;5.53;;;;;;;16.95;71.43;101692.00;5032951;28;20098;-73
2022/05/20 10:39:00;;;;;;;10.43;7.75;;;;;;;16.96;73.02;101694.56;5031665;28;20108;-73
2022/05/20 10:41:29;;;;;;;13.15;7.65;;;;;;;16.95;73.46;101687.56;5017317;28;20652;-73
2022/05/20 10:50:05;;;;;;;11.23;7.68;;;;;;;16.91;74.25;101667.50;5012986;28;20080;-73
2022/05/20 10:52:51;;;;;;;14.65;8.35;;;;;;;16.91;74.31;101656.06;5012446;28;20261;-73
2022/05/20 10:55:21;;;;;;;10.73;8.38;;;;;;;16.91;74.15;101635.75;5003734;28;20063;-73
2022/05/20 10:58:13;;;;;;;11.73;8.40;;;;;;;16.94;74.23;101637.41;5011737;28;20049;-73
2022/05/20 11:00:47;;;;;;;10.85;7.85;;;;;;;16.95;74.18;101626.69;4996237;28;20361;-73
2022/05/20 11:03:54;;;;;;;9.95;7.93;;;;;;;17.00;73.01;101606.13;5004932;28;20402;-72
2022/05/20 11:06:22;;;;;;;9.07;8.15;;;;;;;17.01;72.71;101594.63;5006407;28;20042;-73
2022/05/20 11:09:05;;;;;;;15.80;10.20;;;;;;;17.06;72.22;101597.00;5015944;28;20049;-73
2022/05/20 11:11:31;;;;;;;9.95;8.95;;;;;;;17.11;72.27;101596.75;5013319;28;20419;-73
2022/05/20 11:14:29;;;;;;;11.23;8.88;;;;;;;17.12;72.60;101594.03;5013061;28;20360;-73
2022/05/20 11:17:03;;;;;;;14.98;9.30;;;;;;;17.11;72.32;101578.22;5010103;28;20053;-73
2022/05/20 11:19:40;;;;;;;10.93;9.40;;;;;;;17.12;72.96;101574.63;5010725;28;20056;-73
2022/05/20 11:22:57;;;;;;;15.52;9.15;;;;;;;17.10;72.06;101574.75;5009228;28;20430;-73
2022/05/20 11:26:00;;;;;;;12.80;9.80;;;;;;;17.11;72.08;101594.13;5002682;28;20036;-73
2022/05/20 11:28:43;;;;;;;12.45;9.43;;;;;;;17.10;72.32;101597.69;5011166;28;20184;-73
2022/05/20 11:31:23;;;;;;;12.43;9.32;;;;;;;17.08;71.95;101611.88;5014612;28;20281;-73
2022/05/20 11:34:22;;;;;;;14.20;9.00;;;;;;;17.06;71.90;101626.13;5012943;28;20232;-73
2022/05/20 11:37:10;;;;;;;9.80;8.15;;;;;;;17.04;72.17;101583.00;5004681;28;20072;-73
2022/05/20 11:40:06;;;;;;;11.68;9.30;;;;;;;16.98;71.76;101546.31;5012576;28;20329;-73
2022/05/20 11:42:51;;;;;;;13.43;9.93;;;;;;;16.92;73.08;101507.84;5029351;28;20045;-73
2022/05/20 11:45:34;;;;;;;15.95;10.27;;;;;;;16.88;74.87;101491.28;4993093;28;20091;-73
2022/05/20 11:48:25;;;;;;;19.90;11.38;;;;;;;16.82;76.03;101510.09;5013244;28;20025;-73
2022/05/20 11:51:04;;;;;;;18.70;11.88;;;;;;;16.79;77.17;101514.72;5031432;28;20087;-74
2022/05/20 11:53:30;;;;;;;15.65;11.70;;;;;;;16.73;77.54;101529.13;5028424;28;20029;-74
2022/05/20 11:56:00;;;;;;;12.73;10.55;;;;;;;16.72;77.64;101519.50;5025793;28;20061;-74
2022/05/20 11:58:40;;;;;;;20.65;11.60;;;;;;;16.68;78.46;101536.47;5031141;28;20049;-74
2022/05/20 12:01:07;;;;;;;24.83;11.65;;;;;;;16.68;78.56;101557.63;5032724;28;20042;-74
2022/05/20 12:06:26;;;;;;;12.93;9.35;;;;;;;16.66;79.43;101670.56;5029796;28;20043;-74
2022/05/20 12:08:57;;;;;;;12.23;9.60;;;;;;;16.65;79.58;101690.03;5039210;28;20378;-74